Flight Track Log - Related Links

Times and Time Zones

All times are in EDT time to prevent confusion due to time zone crossing. See the N207BG flight status page for this flight to view local times or setup timezone preferences in your user account.

Time Position Orientation Groundspeed Altitude Reporting Facility
EDT Latitude Longitude Course Direction KTS MPH feet Rate Location/Type
Fri 03:58:51 PM 38.9839 -88.4828 164° South 259 298 6,000  Level Indianapolis Center
Fri 03:59:53 PM 38.9142 -88.4569 164° South 259 298 9,000 2,758 Climbing Indianapolis Center
Fri 04:00:55 PM 38.8383 -88.4317 165° South 270 311 11,700 2,419 Climbing Indianapolis Center
Fri 04:01:57 PM 38.7578 -88.4011 164° South 284 327 14,000 2,215 Climbing Indianapolis Center
Fri 04:03:05 PM 38.6556 -88.3681 166° South 309 356 16,500 1,985 Climbing Kansas Center
Fri 04:04:07 PM 38.5692 -88.3394 165° South 317 365 18,300 1,694 Climbing Kansas Center
Fri 04:05:09 PM 38.4792 -88.3083 165° South 326 375 20,000 1,645 Climbing Kansas Center
Fri 04:06:11 PM 38.3667 -88.2714 166° South 341 392 21,700 1,500 Climbing Kansas Center
Fri 04:07:13 PM 38.2700 -88.2400 166° South 351 404 23,100 1,258 Climbing Kansas Center
Fri 04:08:15 PM 38.1708 -88.2075 166° South 361 415 24,300 1,119 Climbing Kansas Center
Fri 04:09:11 PM 38.0714 -88.1733 165° South 372 428 25,300 1,220 Climbing Indianapolis Center
Fri 04:10:13 PM 37.9689 -88.1381 165° South 381 438 26,700 1,355 Climbing Indianapolis Center
Fri 04:11:15 PM 37.8675 -88.1053 166° South 377 434 28,100 1,306 Climbing Indianapolis Center
Fri 04:12:17 PM 37.7683 -88.0717 165° South 370 426 29,400 1,296 Climbing Indianapolis Center
Fri 04:13:20 PM 37.6625 -88.0367 165° South 380 437 30,800 1,248 Climbing Indianapolis Center
Fri 04:14:22 PM 37.5600 -88.0036 166° South 379 436 32,000 1,065 Climbing Indianapolis Center
Fri 04:15:24 PM 37.4558 -87.9703 166° South 381 438 33,000 484 Climbing Indianapolis Center
Fri 04:16:26 PM 37.3247 -87.9283 166° South 408 470 33,000  Level Indianapolis Center
Fri 04:17:27 PM 37.2072 -87.8881 165° South 413 475 33,000  Level Memphis Center
Fri 04:18:27 PM 37.0878 -87.8475 165° South 441 507 33,000  Level Memphis Center
Fri 04:19:27 PM 36.9681 -87.8097 166° South 446 513 33,000  Level Memphis Center
Fri 04:20:27 PM 36.8464 -87.7694 165° South 446 513 33,000  Level Memphis Center
Fri 04:21:27 PM 36.7269 -87.7344 167° South 452 520 33,000  Level Memphis Center
Fri 04:22:27 PM 36.6031 -87.6947 166° South 452 520 33,000  Level Memphis Center
Fri 04:23:27 PM 36.4814 -87.6572 166° South 452 520 33,000  Level Memphis Center
Fri 04:24:27 PM 36.3744 -87.6222 165° South 452 520 33,000  Level Memphis Center
Fri 04:25:27 PM 36.2547 -87.5850 166° South 452 520 33,000  Level Memphis Center
Fri 04:26:27 PM 36.1308 -87.5456 166° South 452 520 33,000  Level Memphis Center
Fri 04:27:27 PM 36.0111 -87.5086 166° South 452 520 33,000  Level Memphis Center
Fri 04:28:27 PM 35.8892 -87.4667 164° South 452 520 33,000  Level Memphis Center
Fri 04:29:27 PM 35.7675 -87.4303 166° South 452 520 33,000  Level Memphis Center
Fri 04:30:27 PM 35.6456 -87.3936 166° South 452 520 33,000  Level Memphis Center
Fri 04:31:27 PM 35.5236 -87.3544 165° South 458 527 33,000  Level Memphis Center
Fri 04:32:27 PM 35.4017 -87.3156 165° South 451 519 33,000 -350 Level Memphis Center
Fri 04:33:27 PM 35.2839 -87.2767 165° South 451 519 32,300 -850 Descending Memphis Center
Fri 04:34:27 PM 35.1600 -87.2381 166° South 451 519 31,300 -1,050 Descending Memphis Center
Fri 04:35:27 PM 35.0214 -87.1978 167° South 466 536 30,200 -1,700 Descending Memphis Center
Fri 04:36:27 PM 34.8992 -87.1592 165° South 466 536 27,900 -2,300 Descending Memphis Center
Fri 04:37:27 PM 34.7858 -87.1256 166° South 439 505 25,600 -2,200 Descending Memphis Center
Fri 04:38:27 PM 34.6764 -87.0919 166° South 417 480 23,500 -2,108 Descending Memphis Center
Fri 04:39:55 PM 34.5300 -87.0392 163° South 402 463 20,400 -2,108 Descending Atlanta Center
Fri 04:40:55 PM 34.4283 -87.0106 167° South 389 448 18,300 -2,000 Descending Atlanta Center
Fri 04:41:55 PM 34.3269 -86.9792 166° South 384 442 16,400 -1,700 Descending Atlanta Center
Fri 04:42:55 PM 34.2419 -86.9536 166° South 370 426 14,900 -1,775 Descending Atlanta Center
Fri 04:43:06 PM 34.2169 -86.9528 178° South 340 391 14,300 -1,700 Descending Atlanta Center
Fri 04:43:55 PM 34.1528 -86.9281 162° South 349 402 13,200 -1,700 Descending Atlanta Center
Fri 04:44:06 PM 34.1256 -86.9272 179° South 323 372 12,600 -1,800 Descending Atlanta Center
Fri 04:44:55 PM 34.0636 -86.9025 162° South 338 389 11,400 -1,574 Descending Atlanta Center
Fri 04:45:07 PM 34.0386 -86.8992 174° South 331 381 11,000 -1,200 Descending Atlanta Center
Fri 04:45:55 PM 33.9742 -86.8869 171° South 333 383 10,200 -1,377 Descending Atlanta Center
Fri 04:46:08 PM 33.9511 -86.8911 189° South 313 360 9,600 -1,800 Descending Atlanta Center
Fri 04:46:55 PM 33.8950 -86.8817 172° South 316 364 8,400 -1,967 Descending Atlanta Center
Fri 04:47:09 PM 33.8678 -86.8858 187° South 272 313 7,600 -1,800 Descending Atlanta Center
Fri 04:47:55 PM 33.8200 -86.8767 171° South 294 338 6,600 -1,672 Descending Atlanta Center
Fri 04:48:10 PM 33.7908 -86.8783 183° South 277 319 5,900 -1,600 Descending Atlanta Center
Fri 04:48:55 PM 33.7450 -86.8742 176° South 281 323 5,000 -1,500 Descending Atlanta Center
Fri 04:49:10 PM 33.7156 -86.8758 183° South 268 308 4,400 -1,000 Descending Atlanta Center
Fri 04:49:55 PM 33.6700 -86.8692 173° South 269 310 4,000 -393 Descending Atlanta Center
Fri 04:50:11 PM 33.6425 -86.8758 191° South 269 310 4,000  Level Atlanta Center
Fri 04:50:55 PM 33.5964 -86.8844 189° South 269 310 4,000 -197 Level Atlanta Center
Fri 04:51:12 PM 33.5692 -86.8933 195° South 272 313 3,800 -1,200 Descending Atlanta Center
Fri 04:51:55 PM 33.5233 -86.8844 171° South 274 315 2,800 -1,180 Descending Atlanta Center
Fri 04:52:13 PM 33.5158 -86.8542 107° East 226 260 2,600 -600 Descending Atlanta Center
Fri 04:52:55 PM 33.5208 -86.8222 79° East 186 214 2,200 -900 Descending Atlanta Center
Fri 04:53:13 PM 33.5336 -86.8075 44° Northeast 136 157 1,700 -1,667 Descending Atlanta Center
Fri 04:55:00 PM 33.5500 -86.7500 73° East  Level FlightAware
Fri 05:02:00 PM 33.5639 -86.7523 73° East  Level Estimated

Login

Don't have an account? Register now (free) for customized features, flight alerts, and more!